ADDS METAR Data INFO
IDs: Format: Raw Decoded Include TAF

Data at: 1350 UTC 17 Dec 2017

KDIK 171256Z AUTO 20004KT 10SM OVC110 M08/M10 A2996 RMK AO2 SLP184 I1000 T10831100
KDIK 171156Z AUTO 25004KT 10SM CLR M09/M10 A2997 RMK AO2 SLP185 T10891100 11044 21089 56012
KDIK 171056Z AUTO 25005KT 10SM CLR M08/M10 A2998 RMK AO2 SLP187 T10831100
KDIK 170956Z AUTO 26003KT 10SM CLR M08/M10 A2998 RMK AO2 SLP185 T10781100
KDIK 170856Z AUTO 26006KT 10SM CLR M07/M09 A3000 RMK AO2 SLP192 T10671089 56010
KDIK 170756Z AUTO 28005KT 10SM FEW120 M05/M08 A3001 RMK AO2 SLP193 T10501083
KDIK 170656Z AUTO 27006KT 10SM CLR M05/M08 A3002 RMK AO2 SLP197 T10501083 400281056
KDIK 170556Z AUTO 26007KT 10SM CLR M04/M08 A3003 RMK AO2 SLP202 T10441078 11028 21050 51006
KDIK 170456Z AUTO 25005KT 10SM CLR M04/M06 A3003 RMK AO2 SLP201 T10391061
KDIK 170356Z AUTO 26006KT 10SM FEW120 M03/M06 A3002 RMK AO2 SLP198 T10331061
KDIK 170256Z AUTO 25005KT 10SM CLR M04/M07 A3002 RMK AO2 SLP197 T10441072 51011
KDIK 170156Z AUTO 27004KT 10SM CLR M05/M08 A3001 RMK AO2 SLP195 T10501078
KDIK 170056Z AUTO 26005KT 10SM CLR M04/M08 A2999 RMK AO2 SLP188 T10441078
KDIK 162356Z AUTO 28007KT 10SM CLR M03/M06 A2998 RMK AO2 SLP183 T10281061 10011 21033 53016
KDIK 162256Z AUTO 29007KT 10SM CLR M01/M06 A2996 RMK AO2 SLP172 T10061056
KDIK 162156Z AUTO 30008KT 10SM CLR 01/M05 A2995 RMK AO2 SLP165 T00061050
KDIK 162056Z AUTO 28013KT 10SM CLR 01/M04 A2993 RMK AO2 SLP159 T00111044 53003
KDIK 161956Z AUTO 30010KT 10SM CLR 01/M04 A2992 RMK AO2 SLP154 T00111044
KDIK 161856Z AUTO 30009KT 10SM CLR 01/M04 A2992 RMK AO2 SLP153 T00061039
KDIK 161756Z AUTO 29012KT 10SM CLR 00/M04 A2992 RMK AO2 SLP156 T00001039 10000 21028 51020
KDIK 161656Z AUTO 30014KT 10SM CLR M01/M03 A2992 RMK AO2 SLP158 T10061033
KDIK 161556Z AUTO 30008KT 10SM CLR M02/M04 A2989 RMK AO2 SLP148 T10171039
KDIK 161456Z AUTO 30008KT 10SM CLR M03/M04 A2986 RMK AO2 SLP138 T10281044 51029
KDIK 161356Z AUTO 29008KT 10SM CLR M02/M04 A2983 RMK AO2 SLP128 T10221039
KDIK 161256Z AUTO 29008KT 10SM FEW026 BKN035 M01/M03 A2981 RMK AO2 SLP117 T10111028
KDIK 161249Z AUTO 29008KT 10SM FEW024 OVC036 M01/M02 A2980 RMK AO2 T10061022
KDIK 161214Z AUTO 31012KT 10SM BKN023 M01/M02 A2978 RMK AO2 T10061017
KDIK 161156Z AUTO 30011KT 10SM FEW023 M01/M02 A2977 RMK AO2 SLP101 T10061022 10028 21006 53015
KDIK 161056Z AUTO 30012KT 10SM CLR M01/M01 A2974 RMK AO2 SLP091 T10061011
KDIK 160956Z AUTO 29013KT 10SM FEW075 OVC110 01/00 A2973 RMK AO2 SLP083 T00060000
KDIK 160856Z AUTO 29012KT 10SM FEW048 OVC065 01/00 A2972 RMK AO2 SLP079 T00110000 53027
KDIK 160831Z AUTO 31012KT 10SM SCT016 SCT034 OVC041 02/00 A2970 RMK AO2 T00170000
KDIK 160756Z AUTO 31012KT 10SM SCT015 BKN022 OVC028 02/M01 A2968 RMK AO2 SLP066 T00221011
KDIK 160656Z AUTO 31008KT 10SM BKN018 BKN034 OVC060 02/M04 A2966 RMK AO2 SLP059 T00221044 400781033
KDIK 160556Z AUTO 28007KT 10SM BKN045 BKN055 OVC075 02/M05 A2963 RMK AO2 SLP050 T00221050 10033 21006 53018
KDIK 160456Z AUTO 27006KT 10SM FEW075 BKN110 M01/M06 A2960 RMK AO2 SLP043 T10061056
KDIK 160356Z AUTO 28008KT 10SM FEW048 M01/M06 A2958 RMK AO2 SLP038 T10061056
KDIK 160256Z AUTO 27008KT 10SM CLR 01/M06 A2958 RMK AO2 SLP036 T00111056 53007
KDIK 160156Z AUTO 27010KT 10SM FEW090 02/M06 A2957 RMK AO2 SLP034 T00221056